PDT,Max TemperatureF,Mean TemperatureF,Min TemperatureF,Max Dew PointF,MeanDew PointF,Min DewpointF,Max Humidity, Mean Humidity, Min Humidity, Max Sea Level PressureIn, Mean Sea Level PressureIn, Min Sea Level PressureIn, Max VisibilityMiles, Mean VisibilityMiles, Min VisibilityMiles, Max Wind SpeedMPH, Mean Wind SpeedMPH, Max Gust SpeedMPH,PrecipitationIn, CloudCover, Events, WindDirDegrees
2012-10-1,73,60,48,56,49,45,86,68,43,30.35,30.23,30.09,10,10,10,12,2,,0.00,2,,344
2012-10-2,63,58,52,48,38,27,83,52,27,30.28,30.20,30.16,10,10,2,9,3,18,0.00,4,,338
2012-10-3,66,55,46,42,37,32,77,52,29,30.39,30.33,30.28,10,10,10,10,3,17,0.00,0,,348
2012-10-4,64,56,48,41,39,34,74,54,35,30.30,30.27,30.24,10,10,10,10,4,16,0.00,0,,339
2012-10-5,70,58,48,43,37,33,80,52,27,30.30,30.25,30.20,10,10,10,13,2,16,0.00,0,,315
2012-10-6,71,58,44,42,36,26,82,49,19,30.24,30.18,30.11,10,10,10,9,2,16,0.00,0,,315
2012-10-7,72,58,46,44,42,38,83,59,31,30.10,30.02,29.93,10,10,10,8,1,,0.00,0,,307
2012-10-8,71,56,42,47,43,39,89,63,35,30.05,29.96,29.93,10,10,10,7,3,,0.00,1,,170
2012-10-9,60,54,50,48,47,46,89,78,62,30.14,30.08,30.04,10,9,6,9,5,21,0.00,4,,164
2012-10-10,55,52,48,48,47,46,93,84,74,30.05,30.02,29.99,10,5,2,6,1,,0.00,8,,328
2012-10-11,55,52,46,46,46,44,90,81,69,30.00,29.92,29.81,10,7,5,7,1,,0.00,5,,344
2012-10-12,57,52,46,51,48,45,94,85,72,29.99,29.90,29.83,10,7,2,13,7,21,0.09,8,Rain,157
2012-10-13,62,58,55,57,54,50,94,86,78,30.14,30.10,30.02,10,10,4,16,9,23,0.09,8,Rain,159
2012-10-14,64,60,57,59,57,55,96,89,73,30.11,29.96,29.88,10,7,2,12,6,16,0.52,8,Rain,152
2012-10-15,63,58,54,60,55,50,96,86,72,29.96,29.78,29.55,10,8,2,14,6,23,0.22,7,Rain,166
2012-10-16,63,56,48,52,45,42,83,69,50,30.28,29.99,29.58,10,10,10,15,10,29,0.00,2,,183
2012-10-17,59,50,43,44,42,40,90,74,55,30.33,30.27,30.21,10,10,10,8,1,,0.00,3,,286
2012-10-18,64,55,46,52,45,39,100,74,39,30.21,29.98,29.82,10,8,2,13,4,18,0.64,5,Rain,163
2012-10-19,60,54,48,55,51,43,94,84,67,29.83,29.79,29.76,10,8,3,16,11,24,0.10,8,Rain,165
2012-10-20,52,47,43,44,39,37,86,74,59,29.90,29.86,29.81,10,10,4,14,8,24,0.18,4,Rain-Thunderstorm,177
2012-10-21,54,46,41,41,39,37,96,80,57,29.89,29.85,29.78,10,10,6,9,5,,0.14,5,Rain,146
2012-10-22,46,42,39,43,40,36,97,87,71,29.76,29.63,29.57,10,9,4,10,2,16,0.26,6,Rain,127
2012-10-23,53,47,42,41,39,38,89,75,59,29.88,29.81,29.67,10,10,10,10,6,,0.00,6,Rain,157
2012-10-24,52,48,44,43,41,38,93,81,61,30.17,29.98,29.86,10,10,5,6,1,,0.19,8,Rain,135
2012-10-25,53,48,43,44,42,39,97,82,61,30.42,30.35,30.20,10,10,6,5,2,,0.00,6,,149
2012-10-26,53,48,45,48,44,41,94,86,71,30.30,30.13,30.03,10,9,3,13,3,21,0.06,7,Rain,147
2012-10-27,57,52,48,56,49,46,100,89,77,30.05,29.91,29.76,10,8,2,24,11,32,0.75,8,Rain,152
2012-10-28,59,55,51,55,51,48,96,83,75,29.94,29.88,29.76,10,10,6,17,10,31,0.26,6,Rain,174
2012-10-29,61,56,51,57,53,50,100,88,72,30.01,29.88,29.73,10,8,2,17,10,26,0.57,7,Rain,161
2012-10-30,60,57,54,58,55,53,100,94,88,29.96,29.83,29.75,10,6,2,9,4,,1.20,8,Rain,132
2012-10-31,61,56,51,57,54,50,97,91,77,29.75,29.69,29.62,10,8,3,10,2,18,0.64,7,Rain,148